Sedbergh, United Kingdom
Current Conditions -  °F | °C
As of 6:50 AM on Wednesday 26 Nov 2014 (Local Time) from EGXE Reporting Station
Light Rain Light Rain  
Wind Chill: 35°   Ceiling: 1800
Heat Index: 41°   Visibility: 2.1mi
Dew Point: 39°   Wind: 9mph
Humidity: 93%   Direction: 360°N
Pressure: 30"   Gusts: NA
Location:  54.32°N, 2.53°W
Report Text: EGXE 260650Z 36008KT 3500 -RA BKN018 BKN040 05/04 Q1016 YLO1
Loading
Personal Weather Stations






























Interactive Weather Map New forecast layout! Learn more

10-Day Weather Forecast

Advertisements
Track Severe Weather on mobile